createdAt,value
2023-02-11T00:00:42.079Z,15.38
2023-02-11T00:03:10.824Z,15.50
2023-02-11T00:05:39.061Z,16.13
2023-02-11T00:08:08.637Z,15.07
2023-02-11T00:10:36.885Z,15.20
2023-02-11T00:13:05.142Z,15.45
2023-02-11T00:15:33.400Z,16.20
2023-02-11T00:18:01.689Z,14.52
2023-02-11T00:20:29.924Z,15.10
2023-02-11T00:22:58.260Z,15.38
2023-02-11T00:25:27.840Z,15.18
2023-02-11T00:27:56.009Z,15.15
2023-02-11T00:30:24.537Z,15.55
2023-02-11T00:32:52.938Z,16.47
2023-02-11T00:35:21.355Z,14.82
2023-02-11T00:37:49.551Z,14.32
2023-02-11T00:40:17.993Z,14.60
2023-02-11T00:42:47.881Z,14.48
2023-02-11T00:45:16.113Z,15.07
2023-02-11T00:47:44.314Z,14.97
2023-02-11T00:50:12.411Z,14.30
2023-02-11T00:52:40.688Z,13.63
2023-02-11T00:55:10.708Z,14.23
2023-02-11T00:57:39.002Z,14.18
2023-02-11T01:00:10.557Z,14.90
2023-02-11T01:02:39.382Z,13.73
2023-02-11T01:05:08.498Z,14.30
2023-02-11T01:07:36.694Z,14.50
2023-02-11T01:10:05.482Z,13.20
2023-02-11T01:12:36.243Z,14.00
2023-02-11T01:15:06.080Z,13.70
2023-02-11T01:17:36.160Z,14.43
2023-02-11T01:20:05.756Z,12.80
2023-02-11T01:22:37.394Z,13.80
2023-02-11T01:25:06.503Z,13.10
2023-02-11T01:27:37.296Z,14.10
2023-02-11T01:30:07.396Z,13.80
2023-02-11T01:32:37.710Z,12.88
2023-02-11T01:35:06.634Z,14.30
2023-02-11T01:37:37.710Z,13.93
2023-02-11T01:40:08.311Z,13.25
2023-02-11T01:42:36.619Z,12.50
2023-02-11T01:45:44.511Z,13.18
2023-02-11T01:48:17.058Z,13.15
2023-02-11T01:50:48.173Z,13.48
2023-02-11T01:53:34.758Z,12.65
2023-02-11T01:56:21.871Z,12.63
2023-02-11T01:58:52.421Z,11.70
2023-02-11T02:01:25.434Z,11.70
2023-02-11T02:04:00.667Z,11.63
2023-02-11T02:06:35.772Z,12.50
2023-02-11T02:09:10.075Z,11.90
2023-02-11T02:11:38.894Z,13.15
2023-02-11T02:14:07.360Z,11.98
2023-02-11T02:16:37.675Z,12.57
2023-02-11T02:19:38.726Z,11.60
2023-02-11T02:22:49.466Z,12.70
2023-02-11T02:25:42.176Z,13.35
2023-02-11T02:28:31.547Z,11.82
2023-02-11T02:31:16.434Z,11.77
2023-02-11T02:33:54.337Z,11.60
2023-02-11T02:36:30.089Z,11.85
2023-02-11T02:39:02.106Z,11.15
2023-02-11T02:41:33.500Z,11.90
2023-02-11T02:44:02.153Z,11.15
2023-02-11T02:46:32.273Z,10.68
2023-02-11T02:49:02.438Z,10.75
2023-02-11T02:52:04.988Z,11.40
2023-02-11T02:55:02.945Z,11.55
2023-02-11T02:57:37.149Z,11.60
2023-02-11T03:00:15.875Z,12.10
2023-02-11T03:03:01.882Z,11.45
2023-02-11T03:05:37.007Z,11.55
2023-02-11T03:08:10.013Z,10.65
2023-02-11T03:10:43.071Z,10.60
2023-02-11T03:13:11.602Z,11.30
2023-02-11T03:15:44.767Z,11.07
2023-02-11T03:18:16.409Z,10.93
2023-02-11T03:20:49.021Z,11.50
2023-02-11T03:23:22.135Z,11.40
2023-02-11T03:25:54.392Z,12.15
2023-02-11T03:28:28.870Z,11.68
2023-02-11T03:31:03.857Z,10.48
2023-02-11T03:33:38.711Z,11.50
2023-02-11T03:36:12.283Z,10.60
2023-02-11T03:38:47.046Z,11.02
2023-02-11T03:41:17.508Z,11.55
2023-02-11T03:43:49.632Z,10.88
2023-02-11T03:46:22.085Z,11.60
2023-02-11T03:48:53.465Z,11.70
2023-02-11T03:51:25.661Z,12.23
2023-02-11T03:53:58.298Z,11.77
2023-02-11T03:56:28.923Z,11.65
2023-02-11T03:58:57.518Z,12.13
2023-02-11T04:01:25.889Z,12.23
2023-02-11T04:03:54.175Z,12.60
2023-02-11T04:06:23.787Z,12.32
2023-02-11T04:08:52.049Z,11.48
2023-02-11T04:11:20.252Z,13.15
2023-02-11T04:13:48.465Z,13.00
2023-02-11T04:16:16.762Z,12.57
2023-02-11T04:18:45.187Z,13.07
2023-02-11T04:21:13.379Z,13.40
2023-02-11T04:23:42.980Z,13.03
2023-02-11T04:26:11.176Z,13.60
2023-02-11T04:28:39.457Z,13.23
2023-02-11T04:31:07.903Z,13.63
2023-02-11T04:33:36.113Z,13.23
2023-02-11T04:36:04.837Z,14.30
2023-02-11T04:38:33.215Z,13.63
2023-02-11T04:41:02.844Z,15.00
2023-02-11T04:43:31.100Z,13.30
2023-02-11T04:45:59.643Z,14.70
2023-02-11T04:48:28.085Z,14.68
2023-02-11T04:50:56.341Z,14.20
2023-02-11T04:53:24.675Z,14.20
2023-02-11T04:55:53.494Z,14.25
2023-02-11T04:58:24.378Z,14.60
2023-02-11T05:00:52.822Z,15.32
2023-02-11T05:03:21.182Z,15.80
2023-02-11T05:05:49.744Z,14.73
2023-02-11T05:08:18.124Z,15.25
2023-02-11T05:10:48.456Z,15.90
2023-02-11T05:13:16.654Z,14.80
2023-02-11T05:15:46.382Z,15.20
2023-02-11T05:18:15.556Z,15.50
2023-02-11T05:20:44.234Z,15.30
2023-02-11T05:23:12.508Z,15.15
2023-02-11T05:25:40.790Z,15.88
2023-02-11T05:28:09.079Z,14.00
2023-02-11T05:30:37.333Z,16.17
2023-02-11T05:33:07.130Z,16.27
2023-02-11T05:35:35.418Z,15.80
2023-02-11T05:38:03.676Z,16.33
2023-02-11T05:40:32.022Z,16.60
2023-02-11T05:43:00.264Z,16.02
2023-02-11T05:45:28.626Z,16.35
2023-02-11T05:47:56.863Z,15.85
2023-02-11T05:50:26.726Z,17.13
2023-02-11T05:52:55.118Z,16.17
2023-02-11T05:55:23.512Z,17.60
2023-02-11T05:57:51.849Z,16.73
2023-02-11T06:00:20.626Z,16.80
2023-02-11T06:02:49.174Z,16.80
2023-02-11T06:05:17.679Z,17.07
2023-02-11T06:07:47.450Z,17.20
2023-02-11T06:10:15.774Z,17.67
2023-02-11T06:12:44.812Z,16.70
2023-02-11T06:15:13.084Z,17.65
2023-02-11T06:17:41.344Z,17.80
2023-02-11T06:20:11.234Z,18.27
2023-02-11T06:22:39.798Z,17.40
2023-02-11T06:25:11.028Z,18.10
2023-02-11T06:27:39.608Z,18.42
2023-02-11T06:30:09.277Z,18.90
2023-02-11T06:32:45.879Z,18.58
2023-02-11T06:35:15.108Z,17.48
2023-02-11T06:37:43.966Z,17.95
2023-02-11T06:40:14.320Z,17.63
2023-02-11T06:42:42.784Z,18.40
2023-02-11T06:45:13.015Z,18.88
2023-02-11T06:47:42.074Z,19.30
2023-02-11T06:50:13.908Z,17.75
2023-02-11T06:52:42.200Z,18.20
2023-02-11T06:55:11.258Z,19.38
2023-02-11T06:57:40.890Z,18.08
2023-02-11T07:00:10.851Z,19.27
2023-02-11T07:02:39.078Z,20.20
2023-02-11T07:05:08.162Z,17.92
2023-02-11T07:07:36.507Z,19.52
2023-02-11T07:10:05.862Z,19.48
2023-02-11T07:12:34.359Z,19.35
2023-02-11T07:15:04.073Z,18.70
2023-02-11T07:17:32.326Z,20.03
2023-02-11T07:20:00.584Z,19.37
2023-02-11T07:22:28.949Z,19.90
2023-02-11T07:24:57.211Z,20.50
2023-02-11T07:27:25.491Z,20.60
2023-02-11T07:29:53.724Z,19.95
2023-02-11T07:32:23.373Z,21.40
2023-02-11T07:34:51.690Z,20.17
2023-02-11T07:37:21.134Z,19.83
2023-02-11T07:39:49.446Z,19.98
2023-02-11T07:42:17.609Z,21.52
2023-02-11T07:44:50.272Z,21.50
2023-02-11T07:47:18.716Z,23.40
2023-02-11T07:49:48.828Z,20.80
2023-02-11T07:52:17.104Z,21.90
2023-02-11T07:54:45.478Z,22.35
2023-02-11T07:57:13.814Z,21.80
2023-02-11T07:59:42.119Z,22.93
2023-02-11T08:02:10.679Z,22.40
2023-02-11T08:04:39.005Z,21.02
2023-02-11T08:07:08.780Z,22.50
2023-02-11T08:09:36.938Z,21.85
2023-02-11T08:12:05.621Z,22.60
2023-02-11T08:14:33.836Z,22.35
2023-02-11T08:17:02.064Z,22.27
2023-02-11T08:19:30.336Z,22.50
2023-02-11T08:21:59.922Z,23.45
2023-02-11T08:24:29.612Z,22.50
2023-02-11T08:26:57.756Z,23.63
2023-02-11T08:29:26.218Z,23.55
2023-02-11T08:31:54.538Z,22.27
2023-02-11T08:34:22.771Z,22.00
2023-02-11T08:36:50.977Z,22.63
2023-02-11T08:39:21.302Z,22.33
2023-02-11T08:41:52.969Z,23.13
2023-02-11T08:44:22.247Z,23.20
2023-02-11T08:46:51.402Z,22.95
2023-02-11T08:49:20.111Z,22.75
2023-02-11T08:51:48.489Z,22.48
2023-02-11T08:54:17.157Z,21.50
2023-02-11T08:56:45.536Z,22.00
2023-02-11T08:59:17.931Z,22.98
2023-02-11T09:01:47.283Z,21.20
2023-02-11T09:04:15.921Z,22.77
2023-02-11T09:06:44.330Z,21.55
2023-02-11T09:09:14.569Z,22.55
2023-02-11T09:11:44.761Z,21.63
2023-02-11T09:14:19.736Z,22.25
2023-02-11T09:16:48.665Z,22.33
2023-02-11T09:19:17.395Z,22.63
2023-02-11T09:21:45.666Z,21.98
2023-02-11T09:24:14.082Z,21.73
2023-02-11T09:26:43.401Z,21.92
2023-02-11T09:29:11.728Z,20.60
2023-02-11T09:31:41.658Z,21.75
2023-02-11T09:34:11.167Z,22.35
2023-02-11T09:36:41.037Z,21.73
2023-02-11T09:39:13.015Z,22.27
2023-02-11T09:42:05.024Z,21.92
2023-02-11T09:44:35.183Z,20.98
2023-02-11T09:47:07.310Z,22.17
2023-02-11T09:49:41.137Z,21.67
2023-02-11T09:52:20.200Z,21.27
2023-02-11T09:54:56.380Z,23.27
2023-02-11T09:57:29.171Z,20.95
2023-02-11T09:59:58.103Z,21.23
2023-02-11T10:02:39.871Z,22.20
2023-02-11T10:05:25.693Z,24.70
2023-02-11T10:08:02.110Z,23.40
2023-02-11T10:10:42.003Z,22.50
2023-02-11T10:13:33.766Z,23.08
2023-02-11T10:16:14.808Z,22.60
2023-02-11T10:19:19.266Z,22.30
2023-02-11T10:21:58.819Z,23.20
2023-02-11T10:24:28.784Z,22.38
2023-02-11T10:26:57.047Z,23.63
2023-02-11T10:29:35.161Z,22.80
2023-02-11T10:32:08.260Z,22.95
2023-02-11T10:34:41.498Z,23.75
2023-02-11T10:37:12.382Z,22.85
2023-02-11T10:39:42.588Z,23.75
2023-02-11T10:42:13.959Z,24.25
2023-02-11T10:44:57.903Z,22.67
2023-02-11T10:47:29.823Z,23.17
2023-02-11T10:50:03.559Z,21.83
2023-02-11T10:52:32.520Z,22.27
2023-02-11T10:55:04.054Z,22.40
2023-02-11T10:57:36.234Z,22.48
2023-02-11T11:00:21.179Z,22.80
2023-02-11T11:02:56.711Z,23.02
2023-02-11T11:05:31.691Z,23.30
2023-02-11T11:08:02.188Z,22.90
2023-02-11T11:10:43.466Z,23.17
2023-02-11T11:13:32.870Z,22.70
2023-02-11T11:16:22.096Z,23.85
2023-02-11T11:18:52.210Z,23.80
2023-02-11T11:21:24.511Z,23.90
2023-02-11T11:23:58.244Z,24.77
2023-02-11T11:26:28.743Z,22.52
2023-02-11T11:29:03.511Z,24.05
2023-02-11T11:31:35.497Z,23.50
2023-02-11T11:34:22.045Z,24.05
2023-02-11T11:36:52.089Z,23.23
2023-02-11T11:39:24.813Z,22.00
2023-02-11T11:41:58.549Z,24.05
2023-02-11T11:44:32.546Z,23.08
2023-02-11T11:47:18.494Z,23.63
2023-02-11T11:49:52.723Z,23.17
2023-02-11T11:52:37.353Z,25.30
2023-02-11T11:55:14.190Z,23.58
2023-02-11T11:57:42.732Z,25.25
2023-02-11T12:00:18.001Z,24.83
2023-02-11T12:03:28.671Z,24.63
2023-02-11T12:06:08.884Z,24.00
2023-02-11T12:08:50.110Z,24.30
2023-02-11T12:11:24.780Z,24.60
2023-02-11T12:14:08.395Z,22.13
2023-02-11T12:16:49.004Z,23.35
2023-02-11T12:19:43.556Z,22.98
2023-02-11T12:22:13.620Z,23.55
2023-02-11T12:25:02.369Z,23.13
2023-02-11T12:27:49.202Z,24.85
2023-02-11T12:30:49.159Z,24.67
2023-02-11T12:33:25.502Z,24.70
2023-02-11T12:36:00.429Z,23.92
2023-02-11T12:38:44.720Z,23.80
2023-02-11T12:41:42.841Z,23.13
2023-02-11T12:44:16.665Z,21.83
2023-02-11T12:46:51.484Z,19.75
2023-02-11T12:49:40.565Z,23.05
2023-02-11T12:52:24.655Z,22.52
2023-02-11T12:54:58.345Z,21.80
2023-02-11T12:57:31.471Z,21.27
2023-02-11T13:00:05.073Z,21.73
2023-02-11T13:02:42.119Z,20.83
2023-02-11T13:05:24.558Z,22.50
2023-02-11T13:07:56.812Z,19.88
2023-02-11T13:10:30.095Z,19.13
2023-02-11T13:13:19.548Z,20.05
2023-02-11T13:15:52.673Z,20.83
2023-02-11T13:18:48.374Z,20.00
2023-02-11T13:21:34.922Z,20.63
2023-02-11T13:24:10.812Z,20.85
2023-02-11T13:26:46.666Z,20.45
2023-02-11T13:29:28.908Z,19.40
2023-02-11T13:32:06.077Z,20.15
2023-02-11T13:34:55.743Z,20.27
2023-02-11T13:37:26.655Z,19.73
2023-02-11T13:40:00.428Z,20.13
2023-02-11T13:42:29.735Z,20.17
2023-02-11T13:44:59.544Z,20.90
2023-02-11T13:47:31.516Z,20.65
2023-02-11T13:50:02.014Z,19.30
2023-02-11T13:52:33.927Z,19.70
2023-02-11T13:55:10.732Z,18.80
2023-02-11T13:57:40.874Z,18.97
2023-02-11T14:00:48.589Z,18.15
2023-02-11T14:03:51.125Z,18.05
2023-02-11T14:06:42.956Z,16.90
2023-02-11T14:09:42.242Z,18.48
2023-02-11T14:12:32.910Z,19.23
2023-02-11T14:15:17.908Z,18.75
2023-02-11T14:17:46.334Z,19.25
2023-02-11T14:20:50.939Z,18.40
2023-02-11T14:23:28.471Z,18.73
2023-02-11T14:26:12.986Z,17.73
2023-02-11T14:28:46.802Z,19.00
2023-02-11T14:31:20.831Z,17.45
2023-02-11T14:34:08.847Z,17.73
2023-02-11T14:36:51.829Z,18.92
2023-02-11T14:39:32.446Z,17.48
2023-02-11T14:42:03.708Z,18.42
2023-02-11T14:44:34.223Z,21.35
2023-02-11T14:47:02.731Z,19.00
2023-02-11T14:49:34.687Z,18.50
2023-02-11T14:52:17.035Z,18.45
2023-02-11T14:54:47.100Z,17.70
2023-02-11T14:57:17.995Z,17.65
2023-02-11T15:00:02.309Z,17.20
2023-02-11T15:02:34.405Z,17.08
2023-02-11T15:05:19.405Z,16.83
2023-02-11T15:07:51.611Z,16.75
2023-02-11T15:10:24.938Z,15.00
2023-02-11T15:12:53.553Z,15.95
2023-02-11T15:15:22.026Z,16.38
2023-02-11T15:17:50.747Z,16.35
2023-02-11T15:20:23.927Z,16.08
2023-02-11T15:22:58.545Z,16.65
2023-02-11T15:25:28.077Z,15.88
2023-02-11T15:27:58.624Z,15.53
2023-02-11T15:30:33.981Z,17.95
2023-02-11T15:33:05.448Z,17.30
2023-02-11T15:35:36.811Z,17.20
2023-02-11T15:38:07.172Z,18.95
2023-02-11T15:40:37.274Z,18.60
2023-02-11T15:43:07.167Z,19.35
2023-02-11T15:45:37.622Z,18.55
2023-02-11T15:48:13.012Z,16.77
2023-02-11T15:50:43.035Z,16.38
2023-02-11T15:53:24.447Z,17.58
2023-02-11T15:55:56.206Z,19.40
2023-02-11T15:58:25.162Z,19.85
2023-02-11T16:00:59.743Z,18.15
2023-02-11T16:03:32.756Z,18.00
2023-02-11T16:06:16.823Z,16.52
2023-02-11T16:08:58.273Z,17.08
2023-02-11T16:11:30.385Z,18.15
2023-02-11T16:14:00.388Z,17.45
2023-02-11T16:16:31.458Z,16.88
2023-02-11T16:19:05.126Z,16.20
2023-02-11T16:21:39.130Z,15.55
2023-02-11T16:24:18.547Z,15.98
2023-02-11T16:26:50.766Z,15.88
2023-02-11T16:29:24.288Z,13.85
2023-02-11T16:31:54.693Z,13.80
2023-02-11T16:34:24.645Z,15.02
2023-02-11T16:36:53.763Z,14.83
2023-02-11T16:39:23.869Z,13.35
2023-02-11T16:41:53.293Z,14.27
2023-02-11T16:44:21.496Z,13.10
2023-02-11T16:46:49.852Z,15.40
2023-02-11T16:49:23.311Z,14.55
2023-02-11T16:51:53.151Z,14.85
2023-02-11T16:54:24.044Z,15.30
2023-02-11T16:56:52.735Z,16.07
2023-02-11T16:59:21.160Z,17.13
2023-02-11T17:01:50.954Z,16.10
2023-02-11T17:04:21.669Z,17.00
2023-02-11T17:06:50.088Z,18.42
2023-02-11T17:09:21.019Z,17.63
2023-02-11T17:11:51.465Z,17.67
2023-02-11T17:14:20.298Z,16.52
2023-02-11T17:16:50.358Z,16.80
2023-02-11T17:19:21.087Z,17.47
2023-02-11T17:21:51.465Z,16.83
2023-02-11T17:24:21.089Z,17.30
2023-02-11T17:26:51.565Z,17.63
2023-02-11T17:29:21.668Z,17.60
2023-02-11T17:31:51.563Z,18.33
2023-02-11T17:34:20.489Z,17.50
2023-02-11T17:36:48.728Z,17.15
2023-02-11T17:39:17.163Z,18.83
2023-02-11T17:41:45.885Z,19.02
2023-02-11T17:44:16.421Z,20.10
2023-02-11T17:46:45.022Z,19.25
2023-02-11T17:49:13.450Z,17.40
2023-02-11T17:51:42.031Z,18.98
2023-02-11T17:54:13.552Z,18.50
2023-02-11T17:56:42.772Z,18.95
2023-02-11T17:59:13.301Z,19.45
2023-02-11T18:01:44.127Z,18.77
2023-02-11T18:04:15.717Z,18.40
2023-02-11T18:06:44.334Z,18.98
2023-02-11T18:09:12.799Z,18.70
2023-02-11T18:11:41.802Z,19.20
2023-02-11T18:14:10.866Z,19.30
2023-02-11T18:16:43.083Z,19.58
2023-02-11T18:19:14.161Z,18.92
2023-02-11T18:21:42.570Z,19.60
2023-02-11T18:24:11.563Z,20.58
2023-02-11T18:26:39.788Z,20.65
2023-02-11T18:29:08.066Z,19.42
2023-02-11T18:31:37.098Z,19.70
2023-02-11T18:34:07.624Z,19.33
2023-02-11T18:36:37.355Z,20.42
2023-02-11T18:39:06.385Z,20.98
2023-02-11T18:41:34.918Z,19.27
2023-02-11T18:44:04.540Z,20.27
2023-02-11T18:46:33.264Z,20.95
2023-02-11T18:49:02.209Z,20.70
2023-02-11T18:51:32.411Z,21.02
2023-02-11T18:54:02.370Z,20.20
2023-02-11T18:56:30.722Z,20.58
2023-02-11T18:59:01.180Z,19.55
2023-02-11T19:01:31.657Z,22.20
2023-02-11T19:04:02.942Z,19.85
2023-02-11T19:06:33.112Z,20.13
2023-02-11T19:09:05.906Z,22.08
2023-02-11T19:11:50.473Z,21.48
2023-02-11T19:14:22.002Z,20.90
2023-02-11T19:16:52.782Z,19.02
2023-02-11T19:19:24.388Z,20.67
2023-02-11T19:21:52.561Z,20.35
2023-02-11T19:24:22.809Z,20.70
2023-02-11T19:26:52.514Z,19.67
2023-02-11T19:29:20.920Z,21.10
2023-02-11T19:31:49.919Z,19.53
2023-02-11T19:34:20.518Z,21.80
2023-02-11T19:36:49.775Z,20.60
2023-02-11T19:39:18.545Z,20.40
2023-02-11T19:41:48.142Z,20.00
2023-02-11T19:44:16.691Z,20.63
2023-02-11T19:46:46.101Z,21.83
2023-02-11T19:49:16.809Z,20.67
2023-02-11T19:51:45.040Z,20.98
2023-02-11T19:54:13.525Z,21.05
2023-02-11T19:56:41.857Z,22.33
2023-02-11T19:59:12.139Z,21.13
2023-02-11T20:01:41.093Z,20.60
2023-02-11T20:04:09.739Z,21.80
2023-02-11T20:06:37.991Z,20.42
2023-02-11T20:09:09.995Z,20.67
2023-02-11T20:11:38.492Z,21.45
2023-02-11T20:14:08.384Z,20.55
2023-02-11T20:16:48.253Z,19.10
2023-02-11T20:19:18.890Z,21.58
2023-02-11T20:21:48.730Z,21.05
2023-02-11T20:24:18.808Z,21.30
2023-02-11T20:26:48.634Z,20.67
2023-02-11T20:29:17.617Z,21.73
2023-02-11T20:31:47.487Z,21.10
2023-02-11T20:34:17.706Z,22.00
2023-02-11T20:36:51.714Z,23.33
2023-02-11T20:39:21.890Z,21.70
2023-02-11T20:41:50.686Z,22.10
2023-02-11T20:44:19.401Z,22.83
2023-02-11T20:46:49.144Z,23.20
2023-02-11T20:49:20.533Z,23.20
2023-02-11T20:51:48.775Z,22.40
2023-02-11T20:54:19.369Z,23.00
2023-02-11T20:56:48.523Z,23.95
2023-02-11T20:59:18.199Z,22.88
2023-02-11T21:01:49.593Z,23.98
2023-02-11T21:04:20.080Z,22.80
2023-02-11T21:06:50.432Z,23.35
2023-02-11T21:09:21.011Z,24.27
2023-02-11T21:11:51.546Z,23.83
2023-02-11T21:14:22.307Z,23.25
2023-02-11T21:16:52.096Z,23.25
2023-02-11T21:19:21.274Z,25.55
2023-02-11T21:21:49.502Z,26.27
2023-02-11T21:24:17.853Z,23.90
2023-02-11T21:26:46.076Z,25.60
2023-02-11T21:29:14.384Z,22.65
2023-02-11T21:31:43.109Z,25.00
2023-02-11T21:34:12.890Z,24.10
2023-02-11T21:36:41.457Z,23.00
2023-02-11T21:39:09.755Z,23.77
2023-02-11T21:41:38.062Z,23.73
2023-02-11T21:44:06.326Z,24.13
2023-02-11T21:46:34.688Z,22.95
2023-02-11T21:49:02.917Z,25.23
2023-02-11T21:51:32.495Z,22.77
2023-02-11T21:54:03.038Z,23.48
2023-02-11T21:56:33.454Z,23.13
2023-02-11T21:59:02.146Z,24.08
2023-02-11T22:01:31.881Z,23.67
2023-02-11T22:04:00.701Z,23.73
2023-02-11T22:06:32.745Z,24.50
2023-02-11T22:09:04.175Z,23.50
2023-02-11T22:11:32.373Z,25.35
2023-02-11T22:14:00.806Z,23.77
2023-02-11T22:16:29.631Z,23.65
2023-02-11T22:18:59.344Z,24.48
2023-02-11T22:21:27.810Z,26.23
2023-02-11T22:23:58.041Z,24.33
2023-02-11T22:26:28.109Z,24.35
2023-02-11T22:28:57.018Z,24.80
2023-02-11T22:31:27.150Z,24.17
2023-02-11T22:33:55.588Z,23.90
2023-02-11T22:36:26.015Z,22.37
2023-02-11T22:38:54.969Z,23.10
2023-02-11T22:41:25.061Z,23.63
2023-02-11T22:43:53.267Z,23.60
2023-02-11T22:46:21.715Z,23.90
2023-02-11T22:48:51.035Z,24.17
2023-02-11T22:51:21.324Z,22.92
2023-02-11T22:53:54.201Z,23.42
2023-02-11T22:56:24.141Z,22.77
2023-02-11T22:58:54.488Z,23.20
2023-02-11T23:01:22.856Z,21.40
2023-02-11T23:03:51.277Z,22.80
2023-02-11T23:06:19.527Z,21.95
2023-02-11T23:08:48.337Z,22.73
2023-02-11T23:11:18.548Z,22.80
2023-02-11T23:13:49.421Z,22.05
2023-02-11T23:16:19.920Z,23.38
2023-02-11T23:18:49.710Z,22.08
2023-02-11T23:21:21.237Z,22.77
2023-02-11T23:23:50.576Z,21.77
2023-02-11T23:26:19.518Z,21.67
2023-02-11T23:28:49.349Z,22.67
2023-02-11T23:31:21.191Z,22.75
2023-02-11T23:33:50.513Z,21.80
2023-02-11T23:36:20.646Z,22.33
2023-02-11T23:38:49.688Z,21.73
2023-02-11T23:41:18.642Z,21.35
2023-02-11T23:43:52.136Z,20.95
2023-02-11T23:46:21.926Z,21.63
2023-02-11T23:48:50.713Z,22.23
2023-02-11T23:51:19.879Z,23.02
2023-02-11T23:53:49.282Z,21.48
2023-02-11T23:56:20.671Z,21.65
2023-02-11T23:58:51.327Z,22.35
